Time,TemperatureF,DewpointF,PressureIn,WindDirection,WindDirectionDegrees,WindSpeedMPH,WindSpeedGustMPH,Humidity,HourlyPrecipIn,Conditions,Clouds,dailyrainin,SoftwareType,DateUTC
2013-03-30 00:11:00,29.5,25.0,30.05,ENE,67,0.0,-999.0,83,-99.99,,,0.00,Acu-Link.com,2013-03-30 04:11:00,
2013-03-30 00:41:00,28.9,25.0,30.05,ESE,112,0.0,-999.0,85,-99.99,,,0.00,Acu-Link.com,2013-03-30 04:41:00,
2013-03-30 00:57:00,29.1,24.6,30.05,NNE,22,1.7,-999.0,83,-99.99,,,0.00,Acu-Link.com,2013-03-30 04:57:00,
2013-03-30 01:12:00,29.1,24.9,30.05,NE,45,1.7,-999.0,84,-99.99,,,0.00,Acu-Link.com,2013-03-30 05:12:00,
2013-03-30 01:27:00,28.2,24.0,30.05,ENE,67,1.7,-999.0,84,-99.99,,,0.00,Acu-Link.com,2013-03-30 05:27:00,
2013-03-30 01:42:00,28.2,24.3,30.05,ENE,67,1.7,-999.0,85,-99.99,,,0.00,Acu-Link.com,2013-03-30 05:42:00,
2013-03-30 01:57:00,27.9,24.3,30.05,ENE,67,1.7,-999.0,86,-99.99,,,0.00,Acu-Link.com,2013-03-30 05:57:00,
2013-03-30 02:12:00,28.0,24.4,30.05,NNE,22,0.0,-999.0,86,-99.99,,,0.00,Acu-Link.com,2013-03-30 06:12:00,
2013-03-30 02:27:00,27.5,23.9,30.05,NW,315,2.7,-999.0,86,-99.99,,,0.00,Acu-Link.com,2013-03-30 06:27:00,
2013-03-30 02:42:00,27.7,24.1,30.04,West,270,0.0,-999.0,86,-99.99,,,0.00,Acu-Link.com,2013-03-30 06:42:00,
2013-03-30 02:57:00,27.9,24.3,30.05,WNW,292,1.1,-999.0,86,-99.99,,,0.00,Acu-Link.com,2013-03-30 06:57:00,
2013-03-30 03:13:00,27.5,23.6,30.04,West,270,1.7,-999.0,85,-99.99,,,0.00,Acu-Link.com,2013-03-30 07:13:00,
2013-03-30 03:28:00,27.3,23.4,30.05,ESE,112,0.0,-999.0,85,-99.99,,,0.00,Acu-Link.com,2013-03-30 07:28:00,
2013-03-30 03:43:00,27.1,23.2,30.04,ENE,67,1.7,-999.0,85,-99.99,,,0.00,Acu-Link.com,2013-03-30 07:43:00,
2013-03-30 03:58:00,27.1,23.2,30.05,NE,45,2.2,-999.0,85,-99.99,,,0.00,Acu-Link.com,2013-03-30 07:58:00,
2013-03-30 04:13:00,27.0,23.1,30.05,NE,45,0.0,-999.0,85,-99.99,,,0.00,Acu-Link.com,2013-03-30 08:13:00,
2013-03-30 04:28:00,26.8,22.9,30.05,ENE,67,1.7,-999.0,85,-99.99,,,0.00,Acu-Link.com,2013-03-30 08:28:00,
2013-03-30 04:43:00,26.6,23.0,30.05,East,90,1.7,-999.0,86,-99.99,,,0.00,Acu-Link.com,2013-03-30 08:43:00,
2013-03-30 04:58:00,26.2,22.6,30.06,ESE,112,2.2,-999.0,86,-99.99,,,0.00,Acu-Link.com,2013-03-30 08:58:00,
2013-03-30 05:14:00,26.1,22.8,30.06,NNE,22,1.7,-999.0,87,-99.99,,,0.00,Acu-Link.com,2013-03-30 09:14:00,
2013-03-30 05:29:00,25.7,22.4,30.06,WNW,292,1.1,-999.0,87,-99.99,,,0.00,Acu-Link.com,2013-03-30 09:29:00,
2013-03-30 05:44:00,25.9,22.8,30.06,East,90,0.0,-999.0,88,-99.99,,,0.00,Acu-Link.com,2013-03-30 09:44:00,
2013-03-30 05:59:00,25.7,22.6,30.07,ESE,112,0.0,-999.0,88,-99.99,,,0.00,Acu-Link.com,2013-03-30 09:59:00,
2013-03-30 06:14:00,25.5,22.5,30.07,NE,45,0.0,-999.0,88,-99.99,,,0.00,Acu-Link.com,2013-03-30 10:14:00,
2013-03-30 06:29:00,25.2,22.2,30.08,East,90,0.0,-999.0,88,-99.99,,,0.00,Acu-Link.com,2013-03-30 10:29:00,
2013-03-30 06:44:00,25.3,22.3,30.07,NE,45,1.7,-999.0,88,-99.99,,,0.00,Acu-Link.com,2013-03-30 10:44:00,
2013-03-30 06:59:00,25.2,22.2,30.08,ESE,112,0.0,-999.0,88,-99.99,,,0.00,Acu-Link.com,2013-03-30 10:59:00,
2013-03-30 07:15:00,25.0,22.0,30.09,ENE,67,0.0,-999.0,88,-99.99,,,0.00,Acu-Link.com,2013-03-30 11:15:00,
2013-03-30 07:30:00,25.0,22.0,30.09,NE,45,0.0,-999.0,88,-99.99,,,0.00,Acu-Link.com,2013-03-30 11:30:00,
2013-03-30 07:45:00,25.3,22.3,30.09,ENE,67,0.0,-999.0,88,-99.99,,,0.00,Acu-Link.com,2013-03-30 11:45:00,
2013-03-30 08:00:00,26.1,23.0,30.10,ENE,67,0.0,-999.0,88,-99.99,,,0.00,Acu-Link.com,2013-03-30 12:00:00,
2013-03-30 08:15:00,27.3,24.0,30.10,WNW,292,1.7,-999.0,87,-99.99,,,0.00,Acu-Link.com,2013-03-30 12:15:00,
2013-03-30 08:30:00,29.5,24.1,30.10,SW,225,2.7,-999.0,80,-99.99,,,0.00,Acu-Link.com,2013-03-30 12:30:00,
2013-03-30 08:45:00,30.9,24.6,30.10,West,270,2.2,-999.0,77,-99.99,,,0.00,Acu-Link.com,2013-03-30 12:45:00,
2013-03-30 09:00:00,32.7,25.0,30.10,SW,225,0.0,-999.0,73,-99.99,,,0.00,Acu-Link.com,2013-03-30 13:00:00,
2013-03-30 09:15:00,34.0,24.6,30.10,West,270,4.7,-999.0,68,-99.99,,,0.00,Acu-Link.com,2013-03-30 13:15:00,
2013-03-30 09:31:00,36.3,26.4,30.10,West,270,4.2,-999.0,67,-99.99,,,0.00,Acu-Link.com,2013-03-30 13:31:00,
2013-03-30 09:46:00,37.6,26.5,30.09,West,270,3.2,-999.0,64,-99.99,,,0.00,Acu-Link.com,2013-03-30 13:46:00,
2013-03-30 10:16:00,42.4,26.9,30.09,West,270,2.7,-999.0,54,-99.99,,,0.00,Acu-Link.com,2013-03-30 14:16:00,
2013-03-30 10:46:00,46.0,27.4,30.08,SSE,157,3.2,-999.0,48,-99.99,,,0.00,Acu-Link.com,2013-03-30 14:46:00,
2013-03-30 11:16:00,48.4,26.4,30.06,South,180,4.7,-999.0,42,-99.99,,,0.00,Acu-Link.com,2013-03-30 15:16:00,
2013-03-30 11:31:00,49.8,25.9,30.05,South,180,1.7,-999.0,39,-99.99,,,0.00,Acu-Link.com,2013-03-30 15:31:00,
2013-03-30 11:47:00,50.2,24.9,30.04,SSE,157,4.7,-999.0,37,-99.99,,,0.00,Acu-Link.com,2013-03-30 15:47:00,
2013-03-30 12:17:00,52.2,28.0,30.03,SE,135,5.8,-999.0,39,-99.99,,,0.00,Acu-Link.com,2013-03-30 16:17:00,
2013-03-30 12:32:00,52.7,28.4,30.02,SSE,157,3.7,-999.0,39,-99.99,,,0.00,Acu-Link.com,2013-03-30 16:32:00,
2013-03-30 12:47:00,50.2,19.2,30.00,ENE,67,3.7,-999.0,29,-99.99,,,0.00,Acu-Link.com,2013-03-30 16:47:00,
2013-03-30 13:02:00,52.9,21.5,30.00,East,90,3.7,-999.0,29,-99.99,,,0.00,Acu-Link.com,2013-03-30 17:02:00,
2013-03-30 13:17:00,52.5,21.2,29.99,ENE,67,5.8,-999.0,29,-99.99,,,0.00,Acu-Link.com,2013-03-30 17:17:00,
2013-03-30 13:32:00,54.1,21.7,29.98,WNW,292,2.7,-999.0,28,-99.99,,,0.00,Acu-Link.com,2013-03-30 17:32:00,
2013-03-30 13:47:00,53.4,20.3,29.98,East,90,3.7,-999.0,27,-99.99,,,0.00,Acu-Link.com,2013-03-30 17:47:00,
2013-03-30 14:03:00,54.3,19.2,29.97,West,270,5.8,-999.0,25,-99.99,,,0.00,Acu-Link.com,2013-03-30 18:03:00,
2013-03-30 14:18:00,55.0,21.6,29.97,ENE,67,4.7,-999.0,27,-99.99,,,0.00,Acu-Link.com,2013-03-30 18:18:00,
2013-03-30 14:33:00,56.1,20.8,29.96,East,90,7.3,-999.0,25,-99.99,,,0.00,Acu-Link.com,2013-03-30 18:33:00,
2013-03-30 14:48:00,56.1,19.8,29.95,West,270,6.8,-999.0,24,-99.99,,,0.00,Acu-Link.com,2013-03-30 18:48:00,
2013-03-30 15:03:00,56.8,21.4,29.95,South,180,6.3,-999.0,25,-99.99,,,0.00,Acu-Link.com,2013-03-30 19:03:00,
2013-03-30 15:18:00,56.3,20.9,29.95,West,270,6.3,-999.0,25,-99.99,,,0.00,Acu-Link.com,2013-03-30 19:18:00,
2013-03-30 15:33:00,56.1,19.8,29.93,South,180,2.7,-999.0,24,-99.99,,,0.00,Acu-Link.com,2013-03-30 19:33:00,
2013-03-30 15:48:00,56.1,20.8,29.93,SE,135,4.2,-999.0,25,-99.99,,,0.00,Acu-Link.com,2013-03-30 19:48:00,
2013-03-30 16:03:00,57.7,21.2,29.92,West,270,6.3,-999.0,24,-99.99,,,0.00,Acu-Link.com,2013-03-30 20:03:00,
2013-03-30 16:19:00,57.4,21.9,29.92,West,270,7.3,-999.0,25,-99.99,,,0.00,Acu-Link.com,2013-03-30 20:19:00,
2013-03-30 16:34:00,56.5,18.1,29.92,SSE,157,3.2,-999.0,22,-99.99,,,0.00,Acu-Link.com,2013-03-30 20:34:00,
2013-03-30 16:49:00,57.2,18.7,29.91,ENE,67,4.2,-999.0,22,-99.99,,,0.00,Acu-Link.com,2013-03-30 20:49:00,
2013-03-30 17:04:00,58.1,21.5,29.91,East,90,2.7,-999.0,24,-99.99,,,0.00,Acu-Link.com,2013-03-30 21:04:00,
2013-03-30 17:19:00,58.1,19.5,29.91,West,270,4.7,-999.0,22,-99.99,,,0.00,Acu-Link.com,2013-03-30 21:19:00,
2013-03-30 17:34:00,61.2,21.0,29.91,ESE,112,6.8,-999.0,21,-99.99,,,0.00,Acu-Link.com,2013-03-30 21:34:00,
2013-03-30 17:49:00,59.0,19.1,29.90,East,90,4.2,-999.0,21,-99.99,,,0.00,Acu-Link.com,2013-03-30 21:49:00,
2013-03-30 18:04:00,60.1,20.0,29.91,West,270,4.7,-999.0,21,-99.99,,,0.00,Acu-Link.com,2013-03-30 22:04:00,
2013-03-30 18:19:00,60.1,21.1,29.90,West,270,0.0,-999.0,22,-99.99,,,0.00,Acu-Link.com,2013-03-30 22:19:00,
2013-03-30 18:35:00,56.5,19.2,29.91,South,180,0.0,-999.0,23,-99.99,,,0.00,Acu-Link.com,2013-03-30 22:35:00,
2013-03-30 18:50:00,52.7,19.7,29.91,NE,45,1.1,-999.0,27,-99.99,,,0.00,Acu-Link.com,2013-03-30 22:50:00,
2013-03-30 19:05:00,50.5,22.5,29.91,NE,45,0.0,-999.0,33,-99.99,,,0.00,Acu-Link.com,2013-03-30 23:05:00,
2013-03-30 19:20:00,47.8,22.8,29.92,NE,45,0.0,-999.0,37,-99.99,,,0.00,Acu-Link.com,2013-03-30 23:20:00,
2013-03-30 19:35:00,46.0,21.8,29.92,NNE,22,2.7,-999.0,38,-99.99,,,0.00,Acu-Link.com,2013-03-30 23:35:00,
2013-03-30 19:50:00,44.2,23.1,29.92,ENE,67,2.2,-999.0,43,-99.99,,,0.00,Acu-Link.com,2013-03-30 23:50:00,
2013-03-30 20:05:00,43.2,23.3,29.92,NE,45,0.0,-999.0,45,-99.99,,,0.00,Acu-Link.com,2013-03-31 00:05:00,
2013-03-30 20:20:00,41.7,24.0,29.93,East,90,0.0,-999.0,49,-99.99,,,0.00,Acu-Link.com,2013-03-31 00:20:00,
2013-03-30 20:35:00,40.5,24.3,29.93,NE,45,0.0,-999.0,52,-99.99,,,0.00,Acu-Link.com,2013-03-31 00:35:00,
2013-03-30 20:50:00,39.2,25.3,29.94,NE,45,1.7,-999.0,57,-99.99,,,0.00,Acu-Link.com,2013-03-31 00:50:00,
2013-03-30 21:06:00,38.3,25.2,29.94,NNE,22,1.7,-999.0,59,-99.99,,,0.00,Acu-Link.com,2013-03-31 01:06:00,
2013-03-30 21:36:00,37.0,24.8,29.95,NE,45,0.0,-999.0,61,-99.99,,,0.00,Acu-Link.com,2013-03-31 01:36:00,
2013-03-30 22:06:00,36.0,24.6,29.95,East,90,0.0,-999.0,63,-99.99,,,0.00,Acu-Link.com,2013-03-31 02:06:00,
2013-03-30 22:21:00,35.1,23.4,29.95,ESE,112,0.0,-999.0,62,-99.99,,,0.00,Acu-Link.com,2013-03-31 02:21:00,
2013-03-30 22:36:00,34.7,24.2,29.95,NE,45,2.7,-999.0,65,-99.99,,,0.00,Acu-Link.com,2013-03-31 02:36:00,
2013-03-30 22:51:00,34.2,23.3,29.94,NE,45,0.0,-999.0,64,-99.99,,,0.00,Acu-Link.com,2013-03-31 02:51:00,
2013-03-30 23:06:00,33.6,23.8,29.95,NE,45,0.0,-999.0,67,-99.99,,,0.00,Acu-Link.com,2013-03-31 03:06:00,
2013-03-30 23:52:00,32.4,23.4,29.95,NE,45,0.0,-999.0,69,-99.99,,,0.00,Acu-Link.com,2013-03-31 03:52:00,